createdAt,value
2017-01-18T00:00:07.109Z,1038.85
2017-01-18T00:00:47.593Z,1038.9
2017-01-18T00:01:28.101Z,1038.86
2017-01-18T00:02:23.261Z,1038.8
2017-01-18T00:03:03.763Z,1038.84
2017-01-18T00:03:44.267Z,1038.85
2017-01-18T00:04:24.757Z,1038.88
2017-01-18T00:05:05.233Z,1038.79
2017-01-18T00:05:45.733Z,1038.83
2017-01-18T00:06:26.257Z,1038.82
2017-01-18T00:07:06.768Z,1038.83
2017-01-18T00:07:47.198Z,1038.81
2017-01-18T00:08:27.725Z,1038.85
2017-01-18T00:09:08.195Z,1038.77
2017-01-18T00:09:48.699Z,1038.8
2017-01-18T00:10:29.174Z,1038.83
2017-01-18T00:11:09.673Z,1038.79
2017-01-18T00:11:50.180Z,1038.77
2017-01-18T00:12:30.719Z,1038.81
2017-01-18T00:13:11.178Z,1038.77
2017-01-18T00:13:51.664Z,1038.73
2017-01-18T00:14:32.203Z,1038.79
2017-01-18T00:15:12.641Z,1038.79
2017-01-18T00:15:53.117Z,1038.77
2017-01-18T00:16:33.694Z,1038.71
2017-01-18T00:17:14.190Z,1038.73
2017-01-18T00:17:54.712Z,1038.67
2017-01-18T00:18:35.179Z,1038.79
2017-01-18T00:19:15.723Z,1038.73
2017-01-18T00:19:56.212Z,1038.7
2017-01-18T00:20:36.712Z,1038.71
2017-01-18T00:21:17.188Z,1038.69
2017-01-18T00:21:57.635Z,1038.72
2017-01-18T00:22:38.196Z,1038.7
2017-01-18T00:23:18.670Z,1038.73
2017-01-18T00:23:59.169Z,1038.68
2017-01-18T00:24:39.662Z,1038.74
2017-01-18T00:25:20.173Z,1038.73
2017-01-18T00:26:00.684Z,1038.74
2017-01-18T00:26:41.155Z,1038.72
2017-01-18T00:27:22.254Z,1038.71
2017-01-18T00:28:02.815Z,1038.7
2017-01-18T00:28:43.346Z,1038.68
2017-01-18T00:29:23.787Z,1038.7
2017-01-18T00:30:04.312Z,1038.77
2017-01-18T00:30:44.803Z,1038.74
2017-01-18T00:31:25.329Z,1038.67
2017-01-18T00:32:05.803Z,1038.69
2017-01-18T00:32:46.317Z,1038.73
2017-01-18T00:33:26.797Z,1038.69
2017-01-18T00:34:07.286Z,1038.68
2017-01-18T00:34:47.754Z,1038.72
2017-01-18T00:35:28.226Z,1038.66
2017-01-18T00:36:08.706Z,1038.72
2017-01-18T00:36:49.193Z,1038.66
2017-01-18T00:37:29.685Z,1038.67
2017-01-18T00:38:10.295Z,1038.71
2017-01-18T00:38:51.584Z,1038.69
2017-01-18T00:39:32.059Z,1038.68
2017-01-18T00:40:12.563Z,1038.68
2017-01-18T00:40:53.045Z,1038.74
2017-01-18T00:41:33.531Z,1038.72
2017-01-18T00:42:14.054Z,1038.7
2017-01-18T00:42:54.538Z,1038.75
2017-01-18T00:43:35.043Z,1038.73
2017-01-18T00:44:15.479Z,1038.74
2017-01-18T00:44:55.958Z,1038.74
2017-01-18T00:45:36.484Z,1038.77
2017-01-18T00:46:16.949Z,1038.78
2017-01-18T00:46:57.463Z,1038.78
2017-01-18T00:47:37.924Z,1038.82
2017-01-18T00:48:19.001Z,1038.76
2017-01-18T00:48:59.462Z,1038.82
2017-01-18T00:49:39.929Z,1038.82
2017-01-18T00:50:21.197Z,1038.79
2017-01-18T00:51:01.768Z,1038.81
2017-01-18T00:51:42.260Z,1038.85
2017-01-18T00:52:22.784Z,1038.85
2017-01-18T00:53:03.958Z,1038.81
2017-01-18T00:53:45.359Z,1038.82
2017-01-18T00:54:25.841Z,1038.78
2017-01-18T00:55:06.311Z,1038.81
2017-01-18T00:55:47.712Z,1038.81
2017-01-18T00:56:28.206Z,1038.8
2017-01-18T00:57:08.716Z,1038.8
2017-01-18T00:57:49.238Z,1038.79
2017-01-18T00:58:29.715Z,1038.78
2017-01-18T00:59:10.212Z,1038.72
2017-01-18T00:59:50.699Z,1038.76
2017-01-18T01:00:32.188Z,1038.75
2017-01-18T01:01:12.628Z,1038.76
2017-01-18T01:01:53.125Z,1038.73
2017-01-18T01:02:33.637Z,1038.78
2017-01-18T01:03:14.154Z,1038.75
2017-01-18T01:03:54.624Z,1038.79
2017-01-18T01:04:35.124Z,1038.75
2017-01-18T01:05:15.618Z,1038.77
2017-01-18T01:05:56.129Z,1038.7
2017-01-18T01:06:36.614Z,1038.74
2017-01-18T01:07:17.096Z,1038.71
2017-01-18T01:07:57.577Z,1038.71
2017-01-18T01:08:38.067Z,1038.67
2017-01-18T01:09:18.536Z,1038.64
2017-01-18T01:09:59.046Z,1038.69
2017-01-18T01:10:39.587Z,1038.68
2017-01-18T01:11:20.071Z,1038.69
2017-01-18T01:12:00.540Z,1038.65
2017-01-18T01:12:41.026Z,1038.68
2017-01-18T01:13:21.497Z,1038.65
2017-01-18T01:14:01.954Z,1038.67
2017-01-18T01:14:42.436Z,1038.66
2017-01-18T01:15:22.912Z,1038.69
2017-01-18T01:16:03.454Z,1038.66
2017-01-18T01:16:43.914Z,1038.7
2017-01-18T01:17:24.364Z,1038.69
2017-01-18T01:18:04.893Z,1038.72
2017-01-18T01:18:45.334Z,1038.74
2017-01-18T01:19:25.813Z,1038.74
2017-01-18T01:20:06.310Z,1038.75
2017-01-18T01:20:46.783Z,1038.73
2017-01-18T01:21:27.280Z,1038.73
2017-01-18T01:22:07.744Z,1038.76
2017-01-18T01:22:48.207Z,1038.75
2017-01-18T01:23:28.689Z,1038.72
2017-01-18T01:24:09.177Z,1038.73
2017-01-18T01:24:49.693Z,1038.73
2017-01-18T01:25:30.158Z,1038.76
2017-01-18T01:26:10.655Z,1038.74
2017-01-18T01:26:51.144Z,1038.73
2017-01-18T01:27:31.616Z,1038.74
2017-01-18T01:28:12.107Z,1038.71
2017-01-18T01:28:52.622Z,1038.73
2017-01-18T01:29:33.184Z,1038.69
2017-01-18T01:30:13.717Z,1038.7
2017-01-18T01:30:54.210Z,1038.65
2017-01-18T01:31:34.704Z,1038.67
2017-01-18T01:32:15.197Z,1038.72
2017-01-18T01:32:55.742Z,1038.7
2017-01-18T01:33:36.235Z,1038.73
2017-01-18T01:34:16.712Z,1038.68
2017-01-18T01:34:57.213Z,1038.7
2017-01-18T01:35:37.706Z,1038.78
2017-01-18T01:36:18.837Z,1038.75
2017-01-18T01:36:59.318Z,1038.81
2017-01-18T01:37:39.795Z,1038.78
2017-01-18T01:38:21.160Z,1038.75
2017-01-18T01:39:01.621Z,1038.78
2017-01-18T01:39:42.164Z,1038.75
2017-01-18T01:40:22.681Z,1038.81
2017-01-18T01:41:03.143Z,1038.85
2017-01-18T01:41:44.231Z,1038.84
2017-01-18T01:42:24.759Z,1038.85
2017-01-18T01:43:05.264Z,1038.83
2017-01-18T01:43:45.747Z,1038.87
2017-01-18T01:44:26.289Z,1038.84
2017-01-18T01:45:06.761Z,1038.83
2017-01-18T01:45:47.291Z,1038.82
2017-01-18T01:46:28.546Z,1038.84
2017-01-18T01:47:09.033Z,1038.84
2017-01-18T01:47:49.536Z,1038.8
2017-01-18T01:48:30.025Z,1038.83
2017-01-18T01:49:10.512Z,1038.8
2017-01-18T01:49:50.999Z,1038.83
2017-01-18T01:50:32.218Z,1038.81
2017-01-18T01:51:12.752Z,1038.79
2017-01-18T01:51:53.267Z,1038.88
2017-01-18T01:52:34.361Z,1038.82
2017-01-18T01:53:14.825Z,1038.83
2017-01-18T01:53:55.393Z,1038.83
2017-01-18T01:54:36.839Z,1038.78
2017-01-18T01:55:17.336Z,1038.75
2017-01-18T01:55:57.877Z,1038.75
2017-01-18T01:56:38.345Z,1038.7
2017-01-18T01:57:18.828Z,1038.65
2017-01-18T01:57:59.311Z,1038.63
2017-01-18T01:58:39.828Z,1038.61
2017-01-18T01:59:20.303Z,1038.59
2017-01-18T02:00:00.817Z,1038.56
2017-01-18T02:00:41.279Z,1038.56
2017-01-18T02:01:21.788Z,1038.56
2017-01-18T02:02:02.374Z,1038.53
2017-01-18T02:02:42.892Z,1038.48
2017-01-18T02:03:23.449Z,1038.49
2017-01-18T02:04:04.001Z,1038.5
2017-01-18T02:04:44.538Z,1038.51
2017-01-18T02:05:25.023Z,1038.43
2017-01-18T02:06:05.508Z,1038.47
2017-01-18T02:06:45.973Z,1038.52
2017-01-18T02:07:27.077Z,1038.41
2017-01-18T02:08:07.606Z,1038.41
2017-01-18T02:08:48.126Z,1038.42
2017-01-18T02:09:28.618Z,1038.5
2017-01-18T02:10:09.110Z,1038.45
2017-01-18T02:10:49.596Z,1038.46
2017-01-18T02:11:30.156Z,1038.43
2017-01-18T02:12:10.741Z,1038.42
2017-01-18T02:12:51.182Z,1038.42
2017-01-18T02:13:31.681Z,1038.42
2017-01-18T02:14:12.198Z,1038.47
2017-01-18T02:14:52.691Z,1038.48
2017-01-18T02:15:33.205Z,1038.39
2017-01-18T02:16:13.738Z,1038.49
2017-01-18T02:16:54.209Z,1038.44
2017-01-18T02:17:34.671Z,1038.46
2017-01-18T02:18:15.164Z,1038.47
2017-01-18T02:18:55.732Z,1038.48
2017-01-18T02:19:36.243Z,1038.52
2017-01-18T02:20:16.678Z,1038.44
2017-01-18T02:20:57.141Z,1038.51
2017-01-18T02:21:37.618Z,1038.52
2017-01-18T02:22:18.134Z,1038.5
2017-01-18T02:22:58.677Z,1038.57
2017-01-18T02:23:39.151Z,1038.54
2017-01-18T02:24:19.637Z,1038.55
2017-01-18T02:25:00.176Z,1038.47
2017-01-18T02:25:40.673Z,1038.49
2017-01-18T02:26:21.192Z,1038.49
2017-01-18T02:27:01.654Z,1038.57
2017-01-18T02:27:42.185Z,1038.5
2017-01-18T02:28:22.658Z,1038.55
2017-01-18T02:29:03.189Z,1038.55
2017-01-18T02:29:43.677Z,1038.56
2017-01-18T02:30:31.134Z,1038.55
2017-01-18T02:31:11.640Z,1038.56
2017-01-18T02:31:52.117Z,1038.55
2017-01-18T02:32:32.608Z,1038.55
2017-01-18T02:33:13.085Z,1038.56
2017-01-18T02:33:53.577Z,1038.54
2017-01-18T02:34:34.060Z,1038.55
2017-01-18T02:35:14.604Z,1038.59
2017-01-18T02:35:55.110Z,1038.59
2017-01-18T02:36:35.619Z,1038.57
2017-01-18T02:37:16.120Z,1038.57
2017-01-18T02:37:56.617Z,1038.55
2017-01-18T02:38:37.729Z,1038.55
2017-01-18T02:39:18.241Z,1038.52
2017-01-18T02:39:58.759Z,1038.58
2017-01-18T02:40:39.207Z,1038.58
2017-01-18T02:41:19.665Z,1038.61
2017-01-18T02:42:00.198Z,1038.49
2017-01-18T02:42:40.684Z,1038.52
2017-01-18T02:43:21.165Z,1038.5
2017-01-18T02:44:01.648Z,1038.53
2017-01-18T02:44:42.717Z,1038.54
2017-01-18T02:45:23.184Z,1038.51
2017-01-18T02:46:04.620Z,1038.48
2017-01-18T02:46:45.137Z,1038.47
2017-01-18T02:47:25.646Z,1038.53
2017-01-18T02:48:06.141Z,1038.56
2017-01-18T02:48:46.581Z,1038.48
2017-01-18T02:49:27.090Z,1038.51
2017-01-18T02:50:08.585Z,1038.49
2017-01-18T02:50:49.064Z,1038.44
2017-01-18T02:51:29.573Z,1038.46
2017-01-18T02:52:10.096Z,1038.4
2017-01-18T02:52:50.595Z,1038.41
2017-01-18T02:53:31.125Z,1038.39
2017-01-18T02:54:11.560Z,1038.38
2017-01-18T02:54:52.034Z,1038.37
2017-01-18T02:55:32.496Z,1038.38
2017-01-18T02:56:13.552Z,1038.41
2017-01-18T02:56:53.991Z,1038.41
2017-01-18T02:57:34.506Z,1038.37
2017-01-18T02:58:14.988Z,1038.4
2017-01-18T02:58:55.501Z,1038.37
2017-01-18T02:59:35.992Z,1038.42
2017-01-18T03:00:16.471Z,1038.39
2017-01-18T03:00:56.985Z,1038.42
2017-01-18T03:01:37.452Z,1038.37
2017-01-18T03:02:17.948Z,1038.38
2017-01-18T03:02:58.401Z,1038.35
2017-01-18T03:03:38.908Z,1038.38
2017-01-18T03:04:20.038Z,1038.4
2017-01-18T03:05:00.566Z,1038.43
2017-01-18T03:05:41.057Z,1038.36
2017-01-18T03:06:21.495Z,1038.39
2017-01-18T03:07:02.548Z,1038.35
2017-01-18T03:07:43.050Z,1038.4
2017-01-18T03:08:23.560Z,1038.38
2017-01-18T03:09:04.061Z,1038.45
2017-01-18T03:09:44.528Z,1038.39
2017-01-18T03:10:25.034Z,1038.39
2017-01-18T03:11:05.527Z,1038.42
2017-01-18T03:11:46.073Z,1038.42
2017-01-18T03:12:26.583Z,1038.43
2017-01-18T03:13:07.938Z,1038.44
2017-01-18T03:13:48.423Z,1038.43
2017-01-18T03:14:30.309Z,1038.42
2017-01-18T03:15:10.850Z,1038.43
2017-01-18T03:15:51.301Z,1038.42
2017-01-18T03:16:31.773Z,1038.44
2017-01-18T03:17:12.339Z,1038.42
2017-01-18T03:17:52.808Z,1038.47
2017-01-18T03:18:33.311Z,1038.49
2017-01-18T03:19:13.797Z,1038.47
2017-01-18T03:19:54.287Z,1038.47
2017-01-18T03:20:35.540Z,1038.51
2017-01-18T03:21:16.030Z,1038.48
2017-01-18T03:21:56.496Z,1038.48
2017-01-18T03:22:36.965Z,1038.53
2017-01-18T03:23:17.444Z,1038.46
2017-01-18T03:23:58.625Z,1038.57
2017-01-18T03:24:39.647Z,1038.58
2017-01-18T03:25:20.179Z,1038.6
2017-01-18T03:26:00.711Z,1038.53
2017-01-18T03:26:41.196Z,1038.62
2017-01-18T03:27:21.655Z,1038.58
2017-01-18T03:28:02.166Z,1038.58
2017-01-18T03:28:43.643Z,1038.64
2017-01-18T03:29:24.182Z,1038.6
2017-01-18T03:30:06.563Z,1038.62
2017-01-18T03:30:47.008Z,1038.61
2017-01-18T03:31:27.493Z,1038.64
2017-01-18T03:32:07.958Z,1038.64
2017-01-18T03:32:48.466Z,1038.64
2017-01-18T03:33:28.966Z,1038.63
2017-01-18T03:34:09.452Z,1038.65
2017-01-18T03:34:49.914Z,1038.72
2017-01-18T03:35:30.413Z,1038.72
2017-01-18T03:36:10.928Z,1038.71
2017-01-18T03:36:51.408Z,1038.63
2017-01-18T03:37:31.889Z,1038.71
2017-01-18T03:38:12.396Z,1038.72
2017-01-18T03:38:52.888Z,1038.71
2017-01-18T03:39:34.140Z,1038.65
2017-01-18T03:40:15.461Z,1038.66
2017-01-18T03:42:47.981Z,1038.66
2017-01-18T03:43:30.611Z,1038.63
2017-01-18T03:44:12.869Z,1038.6
2017-01-18T03:44:55.252Z,1038.62
2017-01-18T03:45:37.396Z,1038.61
2017-01-18T03:46:20.712Z,1038.6
2017-01-18T03:47:02.773Z,1038.61
2017-01-18T03:47:48.677Z,1038.58
2017-01-18T03:48:29.143Z,1038.57
2017-01-18T03:49:09.668Z,1038.62
2017-01-18T03:49:50.123Z,1038.57
2017-01-18T03:50:30.590Z,1038.61
2017-01-18T03:51:12.757Z,1038.57
2017-01-18T03:51:53.264Z,1038.58
2017-01-18T03:52:36.265Z,1038.58
2017-01-18T03:53:16.741Z,1038.59
2017-01-18T03:53:57.245Z,1038.54
2017-01-18T03:54:42.459Z,1038.56
2017-01-18T03:55:22.956Z,1038.54
2017-01-18T03:56:05.444Z,1038.54
2017-01-18T03:56:46.934Z,1038.59
2017-01-18T03:57:34.223Z,1038.58
2017-01-18T03:58:14.670Z,1038.53
2017-01-18T03:58:56.980Z,1038.53
2017-01-18T03:59:39.379Z,1038.51
2017-01-18T04:00:19.831Z,1038.51
2017-01-18T04:01:02.100Z,1038.53
2017-01-18T04:01:46.361Z,1038.52
2017-01-18T04:02:26.841Z,1038.53
2017-01-18T04:03:07.292Z,1038.48
2017-01-18T04:03:47.791Z,1038.47
2017-01-18T04:04:29.970Z,1038.49
2017-01-18T04:05:10.452Z,1038.5
2017-01-18T04:05:50.943Z,1038.53
2017-01-18T04:06:33.377Z,1038.47
2017-01-18T04:07:16.595Z,1038.47
2017-01-18T04:07:59.685Z,1038.51
2017-01-18T04:08:41.779Z,1038.48
2017-01-18T04:09:25.087Z,1038.49
2017-01-18T04:10:07.348Z,1038.49
2017-01-18T04:10:53.567Z,1038.46
2017-01-18T04:11:35.703Z,1038.45
2017-01-18T04:12:16.205Z,1038.41
2017-01-18T04:12:56.921Z,1038.47
2017-01-18T04:13:37.392Z,1038.46
2017-01-18T04:14:17.845Z,1038.49
2017-01-18T04:15:01.963Z,1038.46
2017-01-18T04:15:42.741Z,1038.45
2017-01-18T04:16:23.211Z,1038.45
2017-01-18T04:17:03.674Z,1038.45
2017-01-18T04:17:44.182Z,1038.41
2017-01-18T04:18:26.389Z,1038.42
2017-01-18T04:19:08.481Z,1038.46
2017-01-18T04:19:48.931Z,1038.45
2017-01-18T04:20:29.403Z,1038.4
2017-01-18T04:21:11.860Z,1038.43
2017-01-18T04:21:52.381Z,1038.4
2017-01-18T04:22:32.860Z,1038.35
2017-01-18T04:23:15.134Z,1038.36
2017-01-18T04:23:57.606Z,1038.32
2017-01-18T04:24:40.868Z,1038.36
2017-01-18T04:25:21.446Z,1038.37
2017-01-18T04:26:04.577Z,1038.38
2017-01-18T04:26:45.144Z,1038.34
2017-01-18T04:27:25.656Z,1038.37
2017-01-18T04:28:10.478Z,1038.33
2017-01-18T04:28:52.447Z,1038.36
2017-01-18T04:29:32.977Z,1038.34
2017-01-18T04:30:13.420Z,1038.29
2017-01-18T04:30:55.635Z,1038.27
2017-01-18T04:31:36.130Z,1038.33
2017-01-18T04:32:16.628Z,1038.28
2017-01-18T04:32:58.586Z,1038.4
2017-01-18T04:33:39.074Z,1038.28
2017-01-18T04:34:19.532Z,1038.28
2017-01-18T04:35:01.613Z,1038.25
2017-01-18T04:35:44.606Z,1038.25
2017-01-18T04:36:27.795Z,1038.33
2017-01-18T04:37:08.286Z,1038.28
2017-01-18T04:37:50.320Z,1038.25
2017-01-18T04:38:30.797Z,1038.22
2017-01-18T04:39:12.952Z,1038.25
2017-01-18T04:39:54.045Z,1038.3
2017-01-18T04:40:37.451Z,1038.21
2017-01-18T04:41:22.488Z,1038.25
2017-01-18T04:42:03.107Z,1038.22
2017-01-18T04:42:43.587Z,1038.21
2017-01-18T04:43:24.085Z,1038.22
2017-01-18T04:44:04.573Z,1038.22
2017-01-18T04:44:48.950Z,1038.26
2017-01-18T04:45:32.479Z,1038.18
2017-01-18T04:46:12.955Z,1038.22
2017-01-18T04:46:55.336Z,1038.21
2017-01-18T04:47:35.834Z,1038.22
2017-01-18T04:48:16.341Z,1038.22
2017-01-18T04:48:56.822Z,1038.29
2017-01-18T04:49:39.984Z,1038.24
2017-01-18T04:50:20.476Z,1038.21
2017-01-18T04:51:00.973Z,1038.14
2017-01-18T04:51:43.277Z,1038.17
2017-01-18T04:52:23.734Z,1038.19
2017-01-18T04:53:04.220Z,1038.14
2017-01-18T04:53:44.697Z,1038.15
2017-01-18T04:54:25.149Z,1038.13
2017-01-18T04:55:05.641Z,1038.09
2017-01-18T04:55:46.149Z,1038.09
2017-01-18T04:56:26.613Z,1038.12
2017-01-18T04:57:08.831Z,1038.1
2017-01-18T04:57:49.333Z,1038.09
2017-01-18T04:58:30.089Z,1038.1
2017-01-18T04:59:10.543Z,1038.08
2017-01-18T04:59:51.053Z,1038.04
2017-01-18T05:00:31.559Z,1038.07
2017-01-18T05:01:14.769Z,1038.08
2017-01-18T05:01:55.255Z,1038.06
2017-01-18T05:02:35.757Z,1038.11
2017-01-18T05:03:16.258Z,1038.09
2017-01-18T05:03:56.719Z,1038.14
2017-01-18T05:04:37.215Z,1038.07
2017-01-18T05:05:20.593Z,1038.08
2017-01-18T05:06:02.156Z,1038.13
2017-01-18T05:06:42.603Z,1038.08
2017-01-18T05:07:27.568Z,1038.13
2017-01-18T05:08:08.058Z,1038.12
2017-01-18T05:08:48.518Z,1038.1
2017-01-18T05:09:32.750Z,1038.11
2017-01-18T05:10:13.283Z,1038.13
2017-01-18T05:10:55.696Z,1038.08
2017-01-18T05:11:36.182Z,1038.12
2017-01-18T05:12:18.174Z,1038.11
2017-01-18T05:13:05.093Z,1038.13
2017-01-18T05:13:45.575Z,1038.13
2017-01-18T05:14:26.655Z,1038.11
2017-01-18T05:15:07.182Z,1038.05
2017-01-18T05:15:47.654Z,1038.11
2017-01-18T05:16:28.125Z,1038.08
2017-01-18T05:17:08.619Z,1038.09
2017-01-18T05:17:49.091Z,1038.11
2017-01-18T05:18:31.583Z,1038.09
2017-01-18T05:19:12.068Z,1038.12
2017-01-18T05:19:52.579Z,1038.04
2017-01-18T05:20:33.060Z,1038.08
2017-01-18T05:21:14.071Z,1038.12
2017-01-18T05:21:57.097Z,1038.16
2017-01-18T05:22:39.298Z,1038.11
2017-01-18T05:23:21.241Z,1038.18
2017-01-18T05:24:01.746Z,1038.1
2017-01-18T05:24:42.245Z,1038.12
2017-01-18T05:25:22.715Z,1038.16
2017-01-18T05:26:03.919Z,1038.09
2017-01-18T05:26:44.484Z,1038.1
2017-01-18T05:27:24.955Z,1038.12
2017-01-18T05:28:05.440Z,1038.11
2017-01-18T05:28:45.958Z,1038.15
2017-01-18T05:29:26.458Z,1038.1
2017-01-18T05:30:07.003Z,1038.06
2017-01-18T05:30:47.536Z,1038.09
2017-01-18T05:31:29.036Z,1038.06
2017-01-18T05:32:09.538Z,1038.06
2017-01-18T05:32:50.023Z,1038.06
2017-01-18T05:33:30.528Z,1038.02
2017-01-18T05:34:11.065Z,1038.05
2017-01-18T05:34:51.566Z,1038.03
2017-01-18T05:35:32.055Z,1037.99
2017-01-18T05:36:12.552Z,1038.02
2017-01-18T05:36:53.058Z,1038.03
2017-01-18T05:37:33.587Z,1038
2017-01-18T05:38:14.091Z,1038.03
2017-01-18T05:38:54.553Z,1038.03
2017-01-18T05:39:35.027Z,1038
2017-01-18T05:40:15.531Z,1038
2017-01-18T05:40:56.051Z,1038
2017-01-18T05:41:39.436Z,1037.97
2017-01-18T05:42:22.679Z,1037.96
2017-01-18T05:43:03.224Z,1037.93
2017-01-18T05:43:43.688Z,1037.94
2017-01-18T05:44:24.690Z,1037.91
2017-01-18T05:45:05.171Z,1037.96
2017-01-18T05:45:45.621Z,1037.94
2017-01-18T05:46:26.103Z,1037.89
2017-01-18T05:47:06.578Z,1037.9
2017-01-18T05:47:47.064Z,1037.92
2017-01-18T05:48:27.545Z,1037.95
2017-01-18T05:49:08.130Z,1037.93
2017-01-18T05:49:48.613Z,1037.96
2017-01-18T05:50:29.101Z,1037.96
2017-01-18T05:51:11.448Z,1037.93
2017-01-18T05:51:51.946Z,1038
2017-01-18T05:52:32.417Z,1037.92
2017-01-18T05:53:12.946Z,1037.93
2017-01-18T05:53:53.366Z,1037.94
2017-01-18T05:54:33.885Z,1037.99
2017-01-18T05:55:15.026Z,1037.98
2017-01-18T05:55:57.448Z,1037.95
2017-01-18T05:56:37.929Z,1037.96
2017-01-18T05:57:19.047Z,1037.98
2017-01-18T05:58:01.367Z,1038.01
2017-01-18T05:58:41.838Z,1038.04
2017-01-18T05:59:23.027Z,1038.02
2017-01-18T06:00:06.457Z,1038
2017-01-18T06:00:46.914Z,1038.05
2017-01-18T06:01:27.366Z,1038.06
2017-01-18T06:02:08.813Z,1038.04
2017-01-18T06:02:49.285Z,1038.07
2017-01-18T06:03:29.767Z,1038.09
2017-01-18T06:04:10.257Z,1037.99
2017-01-18T06:04:50.764Z,1038.03
2017-01-18T06:05:31.243Z,1038.05
2017-01-18T06:06:11.725Z,1038.09
2017-01-18T06:06:52.223Z,1038.02
2017-01-18T06:07:32.730Z,1038.08
2017-01-18T06:08:13.248Z,1038.09
2017-01-18T06:08:53.731Z,1038.09
2017-01-18T06:09:34.225Z,1038.04
2017-01-18T06:10:14.740Z,1038.09
2017-01-18T06:10:55.219Z,1038.09
2017-01-18T06:11:38.282Z,1038.06
2017-01-18T06:12:18.748Z,1038.1
2017-01-18T06:12:59.236Z,1038.1
2017-01-18T06:13:42.349Z,1038.07
2017-01-18T06:14:22.836Z,1038.03
2017-01-18T06:15:03.298Z,1038.08
2017-01-18T06:15:43.776Z,1038.05
2017-01-18T06:16:24.228Z,1038.07
2017-01-18T06:17:04.717Z,1038.06
2017-01-18T06:17:45.201Z,1038.03
2017-01-18T06:18:25.819Z,1038.01
2017-01-18T06:19:06.615Z,1038.02
2017-01-18T06:19:48.150Z,1038.09
2017-01-18T06:20:28.878Z,1038.09
2017-01-18T06:21:11.842Z,1038.05
2017-01-18T06:21:55.456Z,1038.1
2017-01-18T06:22:35.952Z,1038.04
2017-01-18T06:23:16.431Z,1038.05
2017-01-18T06:23:56.947Z,1038.01
2017-01-18T06:24:37.470Z,1038.02
2017-01-18T06:25:18.176Z,1038.09
2017-01-18T06:25:58.785Z,1038.08
2017-01-18T06:26:39.237Z,1038.05
2017-01-18T06:27:19.720Z,1038.02
2017-01-18T06:28:00.241Z,1038.05
2017-01-18T06:28:40.707Z,1038.13
2017-01-18T06:29:21.312Z,1038.06
2017-01-18T06:30:01.782Z,1038.09
2017-01-18T06:30:42.368Z,1038.09
2017-01-18T06:31:25.139Z,1038.06
2017-01-18T06:32:05.649Z,1038.07
2017-01-18T06:32:51.688Z,1038.17
2017-01-18T06:33:32.167Z,1038.14
2017-01-18T06:34:12.636Z,1038.08
2017-01-18T06:34:53.133Z,1038.09
2017-01-18T06:35:33.853Z,1038.12
2017-01-18T06:36:14.912Z,1038.13
2017-01-18T06:36:55.410Z,1038.22
2017-01-18T06:37:35.892Z,1038.17
2017-01-18T06:38:16.396Z,1038.24
2017-01-18T06:38:56.926Z,1038.23
2017-01-18T06:39:37.393Z,1038.18
2017-01-18T06:40:17.857Z,1038.21
2017-01-18T06:40:58.350Z,1038.2
2017-01-18T06:41:38.829Z,1038.25
2017-01-18T06:42:19.320Z,1038.23
2017-01-18T06:42:59.947Z,1038.27
2017-01-18T06:43:40.484Z,1038.24
2017-01-18T06:44:22.597Z,1038.27
2017-01-18T06:45:03.128Z,1038.23
2017-01-18T06:45:43.629Z,1038.25
2017-01-18T06:46:26.725Z,1038.24
2017-01-18T06:47:07.217Z,1038.2
2017-01-18T06:47:47.674Z,1038.23
2017-01-18T06:48:28.816Z,1038.25
2017-01-18T06:49:12.405Z,1038.31
2017-01-18T06:49:52.949Z,1038.3
2017-01-18T06:50:33.420Z,1038.37
2017-01-18T06:51:13.903Z,1038.36
2017-01-18T06:51:58.926Z,1038.35
2017-01-18T06:52:41.257Z,1038.39
2017-01-18T06:53:21.752Z,1038.39
2017-01-18T06:54:02.232Z,1038.39
2017-01-18T06:54:42.739Z,1038.47
2017-01-18T06:55:23.199Z,1038.4
2017-01-18T06:56:03.696Z,1038.42
2017-01-18T06:58:45.735Z,1038.47
2017-01-18T06:59:26.351Z,1038.54
2017-01-18T07:00:06.908Z,1038.49
2017-01-18T07:00:47.853Z,1038.54
2017-01-18T07:01:28.456Z,1038.57
2017-01-18T07:02:08.939Z,1038.53
2017-01-18T07:02:49.543Z,1038.54
2017-01-18T07:03:30.019Z,1038.57
2017-01-18T07:04:10.521Z,1038.55
2017-01-18T07:04:51.125Z,1038.52
2017-01-18T07:05:31.641Z,1038.53
2017-01-18T07:06:12.126Z,1038.56
2017-01-18T07:06:54.262Z,1038.59
2017-01-18T07:07:34.793Z,1038.54
2017-01-18T07:08:15.420Z,1038.56
2017-01-18T07:08:55.857Z,1038.58
2017-01-18T07:09:36.338Z,1038.63
2017-01-18T07:10:16.828Z,1038.59
2017-01-18T07:10:57.347Z,1038.64
2017-01-18T07:11:37.795Z,1038.66
2017-01-18T07:12:18.321Z,1038.64
2017-01-18T07:12:58.826Z,1038.71
2017-01-18T07:13:39.383Z,1038.64
2017-01-18T07:14:19.863Z,1038.65
2017-01-18T07:15:00.322Z,1038.62
2017-01-18T07:15:40.878Z,1038.62
2017-01-18T07:16:21.384Z,1038.63
2017-01-18T07:17:01.851Z,1038.62
2017-01-18T07:17:42.411Z,1038.59
2017-01-18T07:18:22.937Z,1038.6
2017-01-18T07:19:03.566Z,1038.61
2017-01-18T07:19:44.706Z,1038.68
2017-01-18T07:20:25.186Z,1038.6
2017-01-18T07:21:05.661Z,1038.66
2017-01-18T07:21:46.150Z,1038.68
2017-01-18T07:22:26.651Z,1038.67
2017-01-18T07:23:07.097Z,1038.65
2017-01-18T07:23:47.607Z,1038.64
2017-01-18T07:24:28.092Z,1038.65
2017-01-18T07:25:08.539Z,1038.67
2017-01-18T07:25:49.030Z,1038.64
2017-01-18T07:26:29.541Z,1038.66
2017-01-18T07:27:10.036Z,1038.67
2017-01-18T07:27:51.016Z,1038.68
2017-01-18T07:30:09.335Z,1038.7
2017-01-18T07:30:49.861Z,1038.74
2017-01-18T07:31:30.366Z,1038.72
2017-01-18T07:32:10.854Z,1038.74
2017-01-18T07:32:51.273Z,1038.77
2017-01-18T07:33:31.769Z,1038.79
2017-01-18T07:34:12.260Z,1038.78
2017-01-18T07:34:52.798Z,1038.79
2017-01-18T07:35:34.703Z,1038.74
2017-01-18T07:36:15.917Z,1038.82
2017-01-18T07:36:56.543Z,1038.77
2017-01-18T07:37:42.627Z,1038.79
2017-01-18T07:38:23.136Z,1038.8
2017-01-18T07:39:04.475Z,1038.73
2017-01-18T07:39:45.228Z,1038.79
2017-01-18T07:40:29.980Z,1038.8
2017-01-18T07:41:14.498Z,1038.75
2017-01-18T07:41:57.710Z,1038.75
2017-01-18T07:42:42.180Z,1038.77
2017-01-18T07:43:27.675Z,1038.8
2017-01-18T07:44:08.412Z,1038.79
2017-01-18T07:44:49.360Z,1038.8
2017-01-18T07:45:30.452Z,1038.79
2017-01-18T07:46:11.393Z,1038.75
2017-01-18T07:46:52.277Z,1038.75
2017-01-18T07:47:34.027Z,1038.79
2017-01-18T07:48:14.741Z,1038.77
2017-01-18T07:48:55.331Z,1038.76
2017-01-18T07:49:35.923Z,1038.78
2017-01-18T07:50:16.375Z,1038.76
2017-01-18T07:50:56.848Z,1038.78
2017-01-18T07:51:37.476Z,1038.78
2017-01-18T07:52:17.935Z,1038.79
2017-01-18T07:52:58.500Z,1038.79
2017-01-18T07:53:39.009Z,1038.78
2017-01-18T07:54:19.545Z,1038.81
2017-01-18T07:55:00.023Z,1038.78
2017-01-18T07:55:40.494Z,1038.73
2017-01-18T07:56:21.005Z,1038.82
2017-01-18T07:57:01.521Z,1038.78
2017-01-18T07:57:41.996Z,1038.83
2017-01-18T07:58:22.461Z,1038.8
2017-01-18T07:59:02.936Z,1038.81
2017-01-18T07:59:43.492Z,1038.78
2017-01-18T08:00:24.993Z,1038.77
2017-01-18T08:01:09.814Z,1038.77
2017-01-18T08:01:50.261Z,1038.79
2017-01-18T08:02:30.763Z,1038.86
2017-01-18T08:03:11.292Z,1038.79
2017-01-18T08:03:51.831Z,1038.81
2017-01-18T08:04:32.356Z,1038.79
2017-01-18T08:05:12.879Z,1038.84
2017-01-18T08:05:56.066Z,1038.81
2017-01-18T08:06:42.400Z,1038.77
2017-01-18T08:07:23.488Z,1038.79
2017-01-18T08:08:03.909Z,1038.75
2017-01-18T08:08:45.540Z,1038.77
2017-01-18T08:09:30.698Z,1038.77
2017-01-18T08:10:12.678Z,1038.82
2017-01-18T08:10:54.230Z,1038.82
2017-01-18T08:11:34.740Z,1038.78
2017-01-18T08:12:15.307Z,1038.82
2017-01-18T08:12:55.952Z,1038.88
2017-01-18T08:13:41.671Z,1038.84
2017-01-18T08:14:22.949Z,1038.9
2017-01-18T08:15:03.577Z,1038.93
2017-01-18T08:15:44.748Z,1038.93
2017-01-18T08:16:26.007Z,1038.83
2017-01-18T08:17:07.338Z,1038.87
2017-01-18T08:17:47.723Z,1038.94
2017-01-18T08:18:28.478Z,1038.96
2017-01-18T08:19:10.470Z,1038.89
2017-01-18T08:19:51.961Z,1038.9
2017-01-18T08:20:34.407Z,1038.97
2017-01-18T08:21:16.703Z,1038.93
2017-01-18T08:22:05.850Z,1038.91
2017-01-18T08:22:46.769Z,1038.92